createdAt,value
2019-03-28T00:00:26.958Z,958.2
2019-03-28T00:03:32.851Z,958.2
2019-03-28T00:06:38.731Z,958.2
2019-03-28T00:09:45.164Z,958.3
2019-03-28T00:12:51.453Z,958.2
2019-03-28T00:15:58.242Z,958.2
2019-03-28T00:19:04.245Z,958.2
2019-03-28T00:22:10.123Z,958.2
2019-03-28T00:25:19.749Z,958.2
2019-03-28T00:28:25.632Z,958.2
2019-03-28T00:31:31.567Z,958.1
2019-03-28T00:34:38.369Z,958.2
2019-03-28T00:37:44.333Z,958.3
2019-03-28T00:40:50.475Z,958.2
2019-03-28T00:43:56.871Z,958.2
2019-03-28T00:47:02.799Z,958.2
2019-03-28T00:50:09.375Z,958.1
2019-03-28T00:53:15.442Z,958.1
2019-03-28T00:56:21.396Z,958.2
2019-03-28T00:59:27.481Z,958.1
2019-03-28T01:02:33.932Z,958.2
2019-03-28T01:05:39.968Z,958.1
2019-03-28T01:08:46.362Z,958.1
2019-03-28T01:11:52.241Z,958.1
2019-03-28T01:14:58.823Z,958.1
2019-03-28T01:18:04.856Z,958.1
2019-03-28T01:21:10.822Z,958.1
2019-03-28T01:24:16.776Z,958
2019-03-28T01:27:22.737Z,958.1
2019-03-28T01:30:29.357Z,958.2
2019-03-28T01:33:35.293Z,958.1
2019-03-28T01:36:41.332Z,958.1
2019-03-28T01:39:47.294Z,958.2
2019-03-28T01:42:53.253Z,958.2
2019-03-28T01:46:00.447Z,958.2
2019-03-28T01:49:06.407Z,958.2
2019-03-28T01:52:12.511Z,958.2
2019-03-28T01:55:18.403Z,958.2
2019-03-28T01:58:24.928Z,958.3
2019-03-28T02:01:31.376Z,958.3
2019-03-28T02:04:37.325Z,958.3
2019-03-28T02:07:43.291Z,958.4
2019-03-28T02:10:50.014Z,958.4
2019-03-28T02:13:56.024Z,958.4
2019-03-28T02:17:01.961Z,958.4
2019-03-28T02:20:07.947Z,958.4
2019-03-28T02:23:14.494Z,958.3
2019-03-28T02:26:20.486Z,958.3
2019-03-28T02:29:26.486Z,958.4
2019-03-28T02:32:33.789Z,958.3
2019-03-28T02:35:39.999Z,958.3
2019-03-28T02:38:45.965Z,958.3
2019-03-28T02:41:51.923Z,958.3
2019-03-28T02:44:57.923Z,958.3
2019-03-28T02:48:05.397Z,958.3
2019-03-28T02:51:11.315Z,958.4
2019-03-28T02:54:17.299Z,958.4
2019-03-28T02:57:39.514Z,958.4
2019-03-28T03:00:52.262Z,958.4
2019-03-28T03:03:58.313Z,958.4
2019-03-28T03:07:04.273Z,958.4
2019-03-28T03:10:10.339Z,958.3
2019-03-28T03:13:16.269Z,958.4
2019-03-28T03:16:24.095Z,958.4
2019-03-28T03:19:30.057Z,958.4
2019-03-28T03:22:36.183Z,958.4
2019-03-28T03:25:42.205Z,958.5
2019-03-28T03:28:48.247Z,958.6
2019-03-28T03:31:55.329Z,958.6
2019-03-28T03:35:03.092Z,958.7
2019-03-28T03:38:09.112Z,958.7
2019-03-28T03:41:14.974Z,958.7
2019-03-28T03:44:21.016Z,958.7
2019-03-28T03:47:26.890Z,958.8
2019-03-28T03:50:32.832Z,958.8
2019-03-28T03:53:38.790Z,958.8
2019-03-28T03:56:44.685Z,958.8
2019-03-28T03:59:50.737Z,958.9
2019-03-28T04:02:59.384Z,958.9
2019-03-28T04:06:06.630Z,958.9
2019-03-28T04:09:12.894Z,958.9
2019-03-28T04:12:18.855Z,959
2019-03-28T04:15:25.033Z,959
2019-03-28T04:18:31.176Z,959
2019-03-28T04:21:37.060Z,959
2019-03-28T04:24:43.095Z,959.1
2019-03-28T04:27:50.232Z,959.1
2019-03-28T04:30:56.255Z,959
2019-03-28T04:34:10.167Z,959
2019-03-28T04:37:16.027Z,959
2019-03-28T04:40:22.013Z,959.1
2019-03-28T04:43:28.070Z,959.2
2019-03-28T04:46:33.958Z,959.2
2019-03-28T04:49:39.876Z,959.2
2019-03-28T04:52:46.986Z,959.4
2019-03-28T04:55:55.805Z,959.3
2019-03-28T04:59:01.688Z,959.4
2019-03-28T05:02:07.785Z,959.3
2019-03-28T05:05:13.649Z,959.4
2019-03-28T05:08:19.844Z,959.4
2019-03-28T05:11:25.725Z,959.4
2019-03-28T05:14:31.663Z,959.4
2019-03-28T05:17:37.621Z,959.4
2019-03-28T05:20:47.769Z,959.3
2019-03-28T05:23:53.824Z,959.3
2019-03-28T05:26:59.815Z,959.3
2019-03-28T05:30:07.809Z,959.3
2019-03-28T05:33:13.976Z,959.3
2019-03-28T05:36:20.777Z,959.3
2019-03-28T05:39:26.744Z,959.3
2019-03-28T05:42:32.808Z,959.3
2019-03-28T05:45:38.795Z,959.3
2019-03-28T05:48:44.803Z,959.4
2019-03-28T05:51:51.021Z,959.4
2019-03-28T05:54:56.899Z,959.4
2019-03-28T05:58:02.994Z,959.4
2019-03-28T06:01:11.914Z,959.4
2019-03-28T06:04:17.979Z,959.4
2019-03-28T06:07:23.943Z,959.5
2019-03-28T06:10:29.904Z,959.4
2019-03-28T06:13:35.863Z,959.4
2019-03-28T06:16:41.821Z,959.3
2019-03-28T06:19:47.717Z,959.3
2019-03-28T06:22:56.511Z,959.3
2019-03-28T06:26:02.468Z,959.3
2019-03-28T06:29:22.761Z,959.4
2019-03-28T06:32:44.335Z,959.6
2019-03-28T06:35:50.399Z,959.5
2019-03-28T06:38:56.308Z,959.5
2019-03-28T06:42:02.186Z,959.5
2019-03-28T06:45:08.336Z,959.6
2019-03-28T06:48:14.568Z,959.6
2019-03-28T06:51:20.657Z,959.6
2019-03-28T06:54:26.670Z,959.6
2019-03-28T06:57:33.707Z,959.6
2019-03-28T07:00:39.896Z,959.6
2019-03-28T07:03:48.593Z,959.6
2019-03-28T07:06:54.561Z,959.6
2019-03-28T07:10:03.796Z,959.7
2019-03-28T07:13:10.382Z,959.7
2019-03-28T07:16:16.430Z,959.7
2019-03-28T07:19:26.028Z,959.8
2019-03-28T07:22:31.896Z,959.8
2019-03-28T07:25:37.889Z,959.8
2019-03-28T07:28:43.854Z,959.8
2019-03-28T07:31:49.986Z,959.8
2019-03-28T07:34:55.982Z,959.7
2019-03-28T07:38:02.245Z,959.8
2019-03-28T07:41:08.147Z,959.8
2019-03-28T07:44:14.217Z,959.8
2019-03-28T07:47:20.222Z,959.7
2019-03-28T07:50:26.244Z,959.7
2019-03-28T07:53:35.726Z,959.8
2019-03-28T07:56:41.602Z,959.7
2019-03-28T07:59:47.546Z,959.7
2019-03-28T08:03:08.353Z,959.7
2019-03-28T08:06:14.312Z,959.8
2019-03-28T08:09:20.299Z,959.8
2019-03-28T08:12:40.104Z,959.8
2019-03-28T08:15:46.120Z,959.8
2019-03-28T08:18:53.412Z,959.8
2019-03-28T08:21:59.367Z,959.8
2019-03-28T08:25:13.692Z,959.8
2019-03-28T08:28:19.842Z,959.7
2019-03-28T08:31:25.783Z,959.8
2019-03-28T08:34:32.628Z,959.8
2019-03-28T08:37:38.538Z,959.8
2019-03-28T08:40:44.559Z,959.8
2019-03-28T08:43:50.559Z,959.8
2019-03-28T08:46:56.467Z,959.7
2019-03-28T08:50:02.583Z,959.7
2019-03-28T08:53:08.655Z,959.8
2019-03-28T08:56:14.652Z,959.8
2019-03-28T08:59:20.716Z,959.7
2019-03-28T09:02:26.740Z,959.7
2019-03-28T09:05:32.695Z,959.7
2019-03-28T09:08:38.789Z,959.6
2019-03-28T09:11:44.809Z,959.7
2019-03-28T09:14:50.826Z,959.7
2019-03-28T09:18:00.930Z,959.7
2019-03-28T09:21:06.943Z,959.7
2019-03-28T09:24:12.902Z,959.7
2019-03-28T09:27:18.869Z,959.6
2019-03-28T09:30:24.766Z,959.6
2019-03-28T09:33:30.898Z,959.7
2019-03-28T09:36:36.765Z,959.6
2019-03-28T09:39:42.729Z,959.6
2019-03-28T09:42:48.908Z,959.6
2019-03-28T09:45:54.928Z,959.6
2019-03-28T09:49:05.706Z,959.5
2019-03-28T09:52:11.589Z,959.5
2019-03-28T09:55:20.086Z,959.6
2019-03-28T09:58:26.147Z,959.6
2019-03-28T10:01:32.311Z,959.5
2019-03-28T10:04:38.237Z,959.5
2019-03-28T10:07:44.152Z,959.5
2019-03-28T10:10:50.186Z,959.5
2019-03-28T10:13:56.146Z,959.5
2019-03-28T10:17:02.719Z,959.4
2019-03-28T10:20:09.656Z,959.4
2019-03-28T10:23:15.743Z,959.4
2019-03-28T10:26:21.736Z,959.4
2019-03-28T10:29:27.685Z,959.3
2019-03-28T10:32:33.748Z,959.2
2019-03-28T10:35:39.707Z,959.3
2019-03-28T10:38:45.679Z,959.2
2019-03-28T10:41:51.553Z,959.2
2019-03-28T10:44:58.847Z,959.2
2019-03-28T10:48:04.780Z,959.1
2019-03-28T10:51:10.841Z,959
2019-03-28T10:54:21.918Z,959
2019-03-28T10:57:33.257Z,959
2019-03-28T11:00:39.172Z,959
2019-03-28T11:03:45.228Z,959
2019-03-28T11:06:51.126Z,958.9
2019-03-28T11:09:57.150Z,958.9
2019-03-28T11:13:10.090Z,958.9
2019-03-28T11:16:16.437Z,958.9
2019-03-28T11:19:22.504Z,958.7
2019-03-28T11:22:28.446Z,958.7
2019-03-28T11:25:37.135Z,958.7
2019-03-28T11:28:43.525Z,958.6
2019-03-28T11:31:53.508Z,958.5
2019-03-28T11:34:59.421Z,958.5
2019-03-28T11:38:10.296Z,958.6
2019-03-28T11:41:16.666Z,958.5
2019-03-28T11:44:22.727Z,958.5
2019-03-28T11:47:28.701Z,958.4
2019-03-28T11:50:34.751Z,958.4
2019-03-28T11:53:40.631Z,958.4
2019-03-28T11:56:46.503Z,958.3
2019-03-28T11:59:52.497Z,958.2
2019-03-28T12:03:03.316Z,958.2
2019-03-28T12:06:09.409Z,958.2
2019-03-28T12:09:16.249Z,958.2
2019-03-28T12:12:22.358Z,958.2
2019-03-28T12:15:28.366Z,958.3
2019-03-28T12:18:34.376Z,958.2
2019-03-28T12:21:40.437Z,958.2
2019-03-28T12:24:47.051Z,958.2
2019-03-28T12:27:52.971Z,958.2
2019-03-28T12:31:02.147Z,958.2
2019-03-28T12:34:08.492Z,958
2019-03-28T12:37:14.594Z,958
2019-03-28T12:40:20.497Z,957.9
2019-03-28T12:43:26.567Z,957.9
2019-03-28T12:46:32.628Z,957.9
2019-03-28T12:49:38.505Z,957.9
2019-03-28T12:52:45.533Z,957.8
2019-03-28T12:55:51.552Z,957.8
2019-03-28T12:58:57.424Z,957.8
2019-03-28T13:02:03.449Z,957.6
2019-03-28T13:05:09.410Z,957.7
2019-03-28T13:08:15.374Z,957.6
2019-03-28T13:14:26.827Z,957.5
2019-03-28T13:17:36.036Z,957.6
2019-03-28T13:20:42.077Z,957.6
2019-03-28T13:23:48.037Z,957.6
2019-03-28T13:26:54.010Z,957.5
2019-03-28T13:30:00.160Z,957.5
2019-03-28T13:33:09.915Z,957.5
2019-03-28T13:36:15.995Z,957.5
2019-03-28T13:39:21.950Z,957.5
2019-03-28T13:42:27.890Z,957.4
2019-03-28T13:45:34.003Z,957.3
2019-03-28T13:48:43.335Z,957.4
2019-03-28T13:51:50.072Z,957.4
2019-03-28T13:54:55.953Z,957.5
2019-03-28T13:58:01.895Z,957.5
2019-03-28T14:01:07.850Z,957.4
2019-03-28T14:04:13.728Z,957.4
2019-03-28T14:07:19.777Z,957.3
2019-03-28T14:10:26.971Z,957.4
2019-03-28T14:13:33.245Z,957.4
2019-03-28T14:16:39.133Z,957.3
2019-03-28T14:19:45.355Z,957.4
2019-03-28T14:22:52.455Z,957.3
2019-03-28T14:25:58.510Z,957.3
2019-03-28T14:29:07.689Z,957.4
2019-03-28T14:32:13.632Z,957.4
2019-03-28T14:35:19.758Z,957.4
2019-03-28T14:38:26.020Z,957.3
2019-03-28T14:41:31.972Z,957.3
2019-03-28T14:44:38.085Z,957.3
2019-03-28T14:47:44.061Z,957.3
2019-03-28T14:50:50.686Z,957.3
2019-03-28T14:53:57.468Z,957.2
2019-03-28T14:57:03.557Z,957.2
2019-03-28T15:00:09.519Z,957.2
2019-03-28T15:03:28.229Z,957.1
2019-03-28T15:06:34.201Z,957.3
2019-03-28T15:09:40.218Z,957.2
2019-03-28T15:12:46.308Z,957.3
2019-03-28T15:15:52.286Z,957.3
2019-03-28T15:18:58.371Z,957.3
2019-03-28T15:22:04.410Z,957.3
2019-03-28T15:25:10.519Z,957.3
2019-03-28T15:28:16.692Z,957.3
2019-03-28T15:31:23.048Z,957.3
2019-03-28T15:34:29.176Z,957.3
2019-03-28T15:37:35.132Z,957.3
2019-03-28T15:40:41.194Z,957.3
2019-03-28T15:43:47.152Z,957.4
2019-03-28T15:46:53.218Z,957.4
2019-03-28T15:50:01.939Z,957.4
2019-03-28T15:53:07.905Z,957.5
2019-03-28T15:56:13.964Z,957.5
2019-03-28T15:59:19.966Z,957.5
2019-03-28T16:02:25.886Z,957.5
2019-03-28T16:05:31.950Z,957.5
2019-03-28T16:08:37.955Z,957.5
2019-03-28T16:11:43.830Z,957.6
2019-03-28T16:14:49.822Z,957.5
2019-03-28T16:17:58.912Z,957.5
2019-03-28T16:21:04.917Z,957.6
2019-03-28T16:24:13.847Z,957.6
2019-03-28T16:27:19.920Z,957.6
2019-03-28T16:30:26.842Z,957.6
2019-03-28T16:33:32.750Z,957.7
2019-03-28T16:36:38.710Z,957.6
2019-03-28T16:39:44.588Z,957.6
2019-03-28T16:42:54.118Z,957.6
2019-03-28T16:46:02.533Z,957.7
2019-03-28T16:49:11.730Z,957.7
2019-03-28T16:52:18.698Z,957.7
2019-03-28T16:55:28.855Z,957.8
2019-03-28T16:58:34.873Z,957.8
2019-03-28T17:01:40.826Z,957.8
2019-03-28T17:04:46.888Z,957.7
2019-03-28T17:07:54.077Z,957.7
2019-03-28T17:11:00.037Z,957.8
2019-03-28T17:14:05.998Z,957.8
2019-03-28T17:17:11.957Z,957.8
2019-03-28T17:20:17.896Z,957.9
2019-03-28T17:23:23.876Z,957.9
2019-03-28T17:26:30.736Z,958
2019-03-28T17:29:36.718Z,958
2019-03-28T17:32:42.680Z,958
2019-03-28T17:35:48.670Z,958.1
2019-03-28T17:38:54.802Z,958.1
2019-03-28T17:42:00.691Z,958.1
2019-03-28T17:45:10.494Z,958.2
2019-03-28T17:48:16.530Z,958.1
2019-03-28T17:51:22.405Z,958.2
2019-03-28T17:54:28.389Z,958.2
2019-03-28T17:57:34.356Z,958.2
2019-03-28T18:00:41.447Z,958.3
2019-03-28T18:03:50.269Z,958.3
2019-03-28T18:06:56.617Z,958.3
2019-03-28T18:10:04.955Z,958.4
2019-03-28T18:13:10.887Z,958.4
2019-03-28T18:16:16.847Z,958.4
2019-03-28T18:19:22.832Z,958.4
2019-03-28T18:22:28.812Z,958.4
2019-03-28T18:25:35.173Z,958.4
2019-03-28T18:28:41.124Z,958.5
2019-03-28T18:31:53.494Z,958.5
2019-03-28T18:35:08.547Z,958.5
2019-03-28T18:38:14.588Z,958.4
2019-03-28T18:41:20.455Z,958.5
2019-03-28T18:44:26.494Z,958.5
2019-03-28T18:47:32.450Z,958.5
2019-03-28T18:50:41.840Z,958.6
2019-03-28T18:53:47.795Z,958.6
2019-03-28T18:56:53.814Z,958.6
2019-03-28T18:59:59.844Z,958.6
2019-03-28T19:03:05.801Z,958.7
2019-03-28T19:06:16.746Z,958.7
2019-03-28T19:09:22.877Z,958.7
2019-03-28T19:12:28.834Z,958.8
2019-03-28T19:15:34.752Z,958.8
2019-03-28T19:18:40.751Z,958.8
2019-03-28T19:21:46.711Z,958.7
2019-03-28T19:24:52.768Z,958.8
2019-03-28T19:27:58.840Z,958.7
2019-03-28T19:31:06.029Z,958.7
2019-03-28T19:34:11.981Z,958.7
2019-03-28T19:37:17.885Z,958.7
2019-03-28T19:40:28.358Z,958.8
2019-03-28T19:43:35.194Z,958.7
2019-03-28T19:46:41.155Z,958.8
2019-03-28T19:49:47.114Z,958.9
2019-03-28T19:52:54.092Z,958.9
2019-03-28T19:56:00.106Z,958.8
2019-03-28T19:59:05.971Z,958.9
2019-03-28T20:02:15.407Z,958.9
2019-03-28T20:05:21.314Z,958.9
2019-03-28T20:08:27.681Z,959
2019-03-28T20:11:33.618Z,959
2019-03-28T20:14:40.298Z,958.9
2019-03-28T20:17:49.145Z,959
2019-03-28T20:20:56.946Z,958.8
2019-03-28T20:24:03.033Z,958.8
2019-03-28T20:27:09.095Z,958.8
2019-03-28T20:30:15.055Z,958.9
2019-03-28T20:33:26.219Z,958.9
2019-03-28T20:36:44.499Z,959
2019-03-28T20:39:50.534Z,959
2019-03-28T20:42:56.518Z,958.9
2019-03-28T20:46:04.317Z,958.8
2019-03-28T20:49:10.358Z,958.8
2019-03-28T20:52:16.553Z,958.9
2019-03-28T20:55:23.913Z,958.9
2019-03-28T20:58:30.996Z,958.9
2019-03-28T21:01:36.876Z,959
2019-03-28T21:04:46.205Z,959
2019-03-28T21:07:54.876Z,959
2019-03-28T21:11:01.001Z,959.1
2019-03-28T21:14:07.045Z,959.1
2019-03-28T21:17:12.929Z,959
2019-03-28T21:20:18.988Z,959.1
2019-03-28T21:23:25.039Z,959.1
2019-03-28T21:26:30.909Z,959.1
2019-03-28T21:29:51.450Z,959.1
2019-03-28T21:32:58.979Z,959.2
2019-03-28T21:36:05.993Z,959.1
2019-03-28T21:39:11.849Z,959.2
2019-03-28T21:43:18.815Z,959.2
2019-03-28T21:46:24.883Z,959.2
2019-03-28T21:49:30.889Z,959.1
2019-03-28T21:52:37.803Z,959.1
2019-03-28T21:55:58.171Z,959.2
2019-03-28T21:59:04.048Z,959.2
2019-03-28T22:02:10.035Z,959.2
2019-03-28T22:05:16.003Z,959.2
2019-03-28T22:08:21.877Z,959.2
2019-03-28T22:11:27.811Z,959.2
2019-03-28T22:14:33.723Z,959.2
2019-03-28T22:17:39.735Z,959.2
2019-03-28T22:20:46.944Z,959.2
2019-03-28T22:23:52.889Z,959.3
2019-03-28T22:26:58.855Z,959.3
2019-03-28T22:30:07.461Z,959.3
2019-03-28T22:33:15.239Z,959.4
2019-03-28T22:36:21.843Z,959.4
2019-03-28T22:39:27.802Z,959.4
2019-03-28T22:42:33.761Z,959.4
2019-03-28T22:45:39.776Z,959.4
2019-03-28T22:48:46.807Z,959.4
2019-03-28T22:51:52.773Z,959.5
2019-03-28T22:54:58.732Z,959.4
2019-03-28T22:58:04.611Z,959.5
2019-03-28T23:01:12.287Z,959.5
2019-03-28T23:04:18.247Z,959.4
2019-03-28T23:07:24.208Z,959.5
2019-03-28T23:10:30.112Z,959.5
2019-03-28T23:13:36.023Z,959.5
2019-03-28T23:16:41.987Z,959.5
2019-03-28T23:19:48.050Z,959.6
2019-03-28T23:22:54.116Z,959.5
2019-03-28T23:26:00.077Z,959.6
2019-03-28T23:29:06.038Z,959.6
2019-03-28T23:32:14.046Z,959.6
2019-03-28T23:35:20.103Z,959.5
2019-03-28T23:38:26.085Z,959.5
2019-03-28T23:41:32.024Z,959.5
2019-03-28T23:44:37.905Z,959.5
2019-03-28T23:47:46.597Z,959.5
2019-03-28T23:50:52.566Z,959.5
2019-03-28T23:53:58.447Z,959.6
2019-03-28T23:57:05.621Z,959.6
